sensor_id;sensor_type;location;lat;lon;timestamp;P1;durP1;ratioP1;P2;durP2;ratioP2
16119;SDS011;12670;53.502;10.252;2023-07-13T00:01:20;5.63;;;2.13;;
16119;SDS011;12670;53.502;10.252;2023-07-13T00:04:23;6.77;;;2.10;;
16119;SDS011;12670;53.502;10.252;2023-07-13T00:07:27;3.47;;;1.87;;
16119;SDS011;12670;53.502;10.252;2023-07-13T00:10:29;6.70;;;2.13;;
16119;SDS011;12670;53.502;10.252;2023-07-13T00:13:34;5.23;;;2.33;;
16119;SDS011;12670;53.502;10.252;2023-07-13T00:16:39;2.90;;;2.10;;
16119;SDS011;12670;53.502;10.252;2023-07-13T00:19:45;4.63;;;2.40;;
16119;SDS011;12670;53.502;10.252;2023-07-13T00:22:47;3.23;;;1.90;;
16119;SDS011;12670;53.502;10.252;2023-07-13T00:25:50;3.30;;;1.83;;
16119;SDS011;12670;53.502;10.252;2023-07-13T00:28:54;4.87;;;2.00;;
16119;SDS011;12670;53.502;10.252;2023-07-13T00:31:57;3.63;;;1.97;;
16119;SDS011;12670;53.502;10.252;2023-07-13T00:35:00;9.07;;;2.00;;
16119;SDS011;12670;53.502;10.252;2023-07-13T00:38:04;7.50;;;2.10;;
16119;SDS011;12670;53.502;10.252;2023-07-13T00:41:07;7.13;;;2.27;;
16119;SDS011;12670;53.502;10.252;2023-07-13T00:44:11;5.30;;;2.37;;
16119;SDS011;12670;53.502;10.252;2023-07-13T00:47:16;5.30;;;2.40;;
16119;SDS011;12670;53.502;10.252;2023-07-13T00:50:19;3.50;;;2.00;;
16119;SDS011;12670;53.502;10.252;2023-07-13T00:53:24;5.53;;;1.80;;
16119;SDS011;12670;53.502;10.252;2023-07-13T00:56:28;2.93;;;1.97;;
16119;SDS011;12670;53.502;10.252;2023-07-13T00:59:33;4.00;;;2.07;;
16119;SDS011;12670;53.502;10.252;2023-07-13T01:02:37;3.33;;;2.30;;
16119;SDS011;12670;53.502;10.252;2023-07-13T01:05:42;3.80;;;1.93;;
16119;SDS011;12670;53.502;10.252;2023-07-13T01:08:45;4.93;;;2.10;;
16119;SDS011;12670;53.502;10.252;2023-07-13T01:11:47;4.00;;;2.30;;
16119;SDS011;12670;53.502;10.252;2023-07-13T01:14:57;4.73;;;2.20;;
16119;SDS011;12670;53.502;10.252;2023-07-13T01:18:01;4.83;;;2.10;;
16119;SDS011;12670;53.502;10.252;2023-07-13T01:21:07;8.63;;;2.33;;
16119;SDS011;12670;53.502;10.252;2023-07-13T01:24:10;4.63;;;2.27;;
16119;SDS011;12670;53.502;10.252;2023-07-13T01:27:13;6.87;;;2.20;;
16119;SDS011;12670;53.502;10.252;2023-07-13T01:30:19;5.03;;;1.90;;
16119;SDS011;12670;53.502;10.252;2023-07-13T01:33:21;6.07;;;2.30;;
16119;SDS011;12670;53.502;10.252;2023-07-13T01:36:25;6.80;;;2.33;;
16119;SDS011;12670;53.502;10.252;2023-07-13T01:39:28;3.50;;;1.90;;
16119;SDS011;12670;53.502;10.252;2023-07-13T01:42:31;8.27;;;1.90;;
16119;SDS011;12670;53.502;10.252;2023-07-13T01:45:34;5.43;;;2.30;;
16119;SDS011;12670;53.502;10.252;2023-07-13T01:48:37;3.63;;;1.90;;
16119;SDS011;12670;53.502;10.252;2023-07-13T01:51:41;8.60;;;2.70;;
16119;SDS011;12670;53.502;10.252;2023-07-13T01:54:43;5.10;;;2.17;;
16119;SDS011;12670;53.502;10.252;2023-07-13T01:57:46;6.50;;;2.50;;
16119;SDS011;12670;53.502;10.252;2023-07-13T02:00:49;4.57;;;2.40;;
16119;SDS011;12670;53.502;10.252;2023-07-13T02:03:53;2.50;;;1.90;;
16119;SDS011;12670;53.502;10.252;2023-07-13T02:06:57;4.67;;;2.10;;
16119;SDS011;12670;53.502;10.252;2023-07-13T02:10:00;6.67;;;2.40;;
16119;SDS011;12670;53.502;10.252;2023-07-13T02:13:03;6.07;;;2.10;;
16119;SDS011;12670;53.502;10.252;2023-07-13T02:16:06;8.00;;;2.87;;
16119;SDS011;12670;53.502;10.252;2023-07-13T02:19:09;5.37;;;2.87;;
16119;SDS011;12670;53.502;10.252;2023-07-13T02:22:13;7.23;;;2.83;;
16119;SDS011;12670;53.502;10.252;2023-07-13T02:25:16;8.50;;;3.00;;
16119;SDS011;12670;53.502;10.252;2023-07-13T02:28:19;5.60;;;3.03;;
16119;SDS011;12670;53.502;10.252;2023-07-13T02:31:21;7.10;;;3.40;;
16119;SDS011;12670;53.502;10.252;2023-07-13T02:34:24;5.70;;;3.00;;
16119;SDS011;12670;53.502;10.252;2023-07-13T02:37:28;6.13;;;3.03;;
16119;SDS011;12670;53.502;10.252;2023-07-13T02:40:32;7.50;;;3.90;;
16119;SDS011;12670;53.502;10.252;2023-07-13T02:43:36;5.03;;;3.20;;
16119;SDS011;12670;53.502;10.252;2023-07-13T02:46:40;5.37;;;3.27;;
16119;SDS011;12670;53.502;10.252;2023-07-13T02:49:42;9.10;;;3.80;;
16119;SDS011;12670;53.502;10.252;2023-07-13T02:52:46;5.53;;;3.57;;
16119;SDS011;12670;53.502;10.252;2023-07-13T02:55:49;6.43;;;3.10;;
16119;SDS011;12670;53.502;10.252;2023-07-13T02:58:52;3.93;;;3.10;;
16119;SDS011;12670;53.502;10.252;2023-07-13T03:01:54;8.23;;;3.27;;
16119;SDS011;12670;53.502;10.252;2023-07-13T03:04:57;8.07;;;3.57;;
16119;SDS011;12670;53.502;10.252;2023-07-13T03:08:02;5.67;;;3.07;;
16119;SDS011;12670;53.502;10.252;2023-07-13T03:11:05;8.33;;;3.80;;
16119;SDS011;12670;53.502;10.252;2023-07-13T03:14:09;6.23;;;3.43;;
16119;SDS011;12670;53.502;10.252;2023-07-13T03:17:12;5.33;;;3.50;;
16119;SDS011;12670;53.502;10.252;2023-07-13T03:20:15;10.13;;;3.53;;
16119;SDS011;12670;53.502;10.252;2023-07-13T03:23:20;7.07;;;3.47;;
16119;SDS011;12670;53.502;10.252;2023-07-13T03:26:23;6.30;;;4.00;;
16119;SDS011;12670;53.502;10.252;2023-07-13T03:29:26;9.27;;;3.63;;
16119;SDS011;12670;53.502;10.252;2023-07-13T03:32:29;7.17;;;3.63;;
16119;SDS011;12670;53.502;10.252;2023-07-13T03:35:31;6.73;;;3.70;;
16119;SDS011;12670;53.502;10.252;2023-07-13T03:38:36;4.93;;;3.00;;
16119;SDS011;12670;53.502;10.252;2023-07-13T03:41:38;7.20;;;3.60;;
16119;SDS011;12670;53.502;10.252;2023-07-13T03:44:41;8.87;;;3.60;;
16119;SDS011;12670;53.502;10.252;2023-07-13T03:47:47;7.27;;;3.77;;
16119;SDS011;12670;53.502;10.252;2023-07-13T03:50:49;7.47;;;3.73;;
16119;SDS011;12670;53.502;10.252;2023-07-13T03:53:53;8.50;;;4.50;;
16119;SDS011;12670;53.502;10.252;2023-07-13T03:56:56;16.57;;;6.77;;
16119;SDS011;12670;53.502;10.252;2023-07-13T03:59:59;8.37;;;4.10;;
16119;SDS011;12670;53.502;10.252;2023-07-13T04:03:01;6.60;;;3.40;;
16119;SDS011;12670;53.502;10.252;2023-07-13T04:06:05;7.10;;;3.60;;
16119;SDS011;12670;53.502;10.252;2023-07-13T04:09:12;7.10;;;3.67;;
16119;SDS011;12670;53.502;10.252;2023-07-13T04:12:15;6.17;;;3.53;;
16119;SDS011;12670;53.502;10.252;2023-07-13T04:15:17;12.80;;;6.30;;
16119;SDS011;12670;53.502;10.252;2023-07-13T04:18:20;8.23;;;4.63;;
16119;SDS011;12670;53.502;10.252;2023-07-13T04:21:23;4.87;;;3.33;;
16119;SDS011;12670;53.502;10.252;2023-07-13T04:24:27;8.23;;;3.60;;
16119;SDS011;12670;53.502;10.252;2023-07-13T04:27:30;6.57;;;3.37;;
16119;SDS011;12670;53.502;10.252;2023-07-13T04:30:33;6.67;;;3.03;;
16119;SDS011;12670;53.502;10.252;2023-07-13T04:33:35;7.23;;;3.27;;
16119;SDS011;12670;53.502;10.252;2023-07-13T04:36:38;7.97;;;3.60;;
16119;SDS011;12670;53.502;10.252;2023-07-13T04:39:42;8.27;;;3.50;;
16119;SDS011;12670;53.502;10.252;2023-07-13T04:42:45;6.87;;;3.50;;
16119;SDS011;12670;53.502;10.252;2023-07-13T04:45:48;5.47;;;3.40;;
16119;SDS011;12670;53.502;10.252;2023-07-13T04:48:52;7.03;;;3.57;;
16119;SDS011;12670;53.502;10.252;2023-07-13T04:51:55;7.57;;;3.30;;
16119;SDS011;12670;53.502;10.252;2023-07-13T04:54:59;9.57;;;3.50;;
16119;SDS011;12670;53.502;10.252;2023-07-13T04:58:02;8.40;;;3.43;;
16119;SDS011;12670;53.502;10.252;2023-07-13T05:01:06;5.77;;;3.20;;
16119;SDS011;12670;53.502;10.252;2023-07-13T05:04:10;10.63;;;3.40;;
16119;SDS011;12670;53.502;10.252;2023-07-13T05:07:13;12.03;;;4.00;;
16119;SDS011;12670;53.502;10.252;2023-07-13T05:10:17;7.93;;;3.60;;
16119;SDS011;12670;53.502;10.252;2023-07-13T05:13:20;8.43;;;3.63;;
16119;SDS011;12670;53.502;10.252;2023-07-13T05:16:25;9.20;;;3.63;;
16119;SDS011;12670;53.502;10.252;2023-07-13T05:19:28;6.30;;;3.33;;
16119;SDS011;12670;53.502;10.252;2023-07-13T05:22:32;9.43;;;3.50;;
16119;SDS011;12670;53.502;10.252;2023-07-13T05:25:37;9.33;;;3.60;;
16119;SDS011;12670;53.502;10.252;2023-07-13T05:28:40;6.47;;;3.50;;
16119;SDS011;12670;53.502;10.252;2023-07-13T05:31:43;9.90;;;4.13;;
16119;SDS011;12670;53.502;10.252;2023-07-13T05:34:46;8.13;;;3.73;;
16119;SDS011;12670;53.502;10.252;2023-07-13T05:37:48;8.70;;;4.03;;
16119;SDS011;12670;53.502;10.252;2023-07-13T05:40:53;10.23;;;4.13;;
16119;SDS011;12670;53.502;10.252;2023-07-13T05:43:57;9.70;;;4.50;;
16119;SDS011;12670;53.502;10.252;2023-07-13T05:47:00;10.30;;;3.77;;
16119;SDS011;12670;53.502;10.252;2023-07-13T05:50:02;9.23;;;4.10;;
16119;SDS011;12670;53.502;10.252;2023-07-13T05:53:07;10.97;;;3.93;;
16119;SDS011;12670;53.502;10.252;2023-07-13T05:56:11;9.23;;;4.03;;
16119;SDS011;12670;53.502;10.252;2023-07-13T05:59:13;15.07;;;3.67;;
16119;SDS011;12670;53.502;10.252;2023-07-13T06:02:16;13.27;;;3.87;;
16119;SDS011;12670;53.502;10.252;2023-07-13T06:05:19;11.70;;;3.90;;
16119;SDS011;12670;53.502;10.252;2023-07-13T06:08:22;11.00;;;3.67;;
16119;SDS011;12670;53.502;10.252;2023-07-13T06:11:26;13.83;;;3.43;;
16119;SDS011;12670;53.502;10.252;2023-07-13T06:14:31;8.20;;;3.10;;
16119;SDS011;12670;53.502;10.252;2023-07-13T06:17:33;11.17;;;3.50;;
16119;SDS011;12670;53.502;10.252;2023-07-13T06:20:36;9.60;;;3.03;;
16119;SDS011;12670;53.502;10.252;2023-07-13T06:23:39;14.33;;;2.93;;
16119;SDS011;12670;53.502;10.252;2023-07-13T06:26:43;18.77;;;4.07;;
16119;SDS011;12670;53.502;10.252;2023-07-13T06:29:46;8.60;;;3.17;;
16119;SDS011;12670;53.502;10.252;2023-07-13T06:32:48;11.53;;;3.40;;
16119;SDS011;12670;53.502;10.252;2023-07-13T06:35:52;15.13;;;3.57;;
16119;SDS011;12670;53.502;10.252;2023-07-13T06:38:55;12.90;;;3.00;;
16119;SDS011;12670;53.502;10.252;2023-07-13T06:41:59;15.53;;;3.53;;
16119;SDS011;12670;53.502;10.252;2023-07-13T06:45:02;14.00;;;2.70;;
16119;SDS011;12670;53.502;10.252;2023-07-13T06:48:05;9.53;;;2.73;;
16119;SDS011;12670;53.502;10.252;2023-07-13T06:51:09;12.43;;;3.10;;
16119;SDS011;12670;53.502;10.252;2023-07-13T06:54:11;10.73;;;2.40;;
16119;SDS011;12670;53.502;10.252;2023-07-13T06:57:16;9.00;;;2.83;;
16119;SDS011;12670;53.502;10.252;2023-07-13T07:00:19;12.13;;;2.47;;
16119;SDS011;12670;53.502;10.252;2023-07-13T07:03:22;9.77;;;2.67;;
16119;SDS011;12670;53.502;10.252;2023-07-13T07:06:25;8.77;;;2.90;;
16119;SDS011;12670;53.502;10.252;2023-07-13T07:09:29;10.10;;;2.53;;
16119;SDS011;12670;53.502;10.252;2023-07-13T07:12:34;10.87;;;2.43;;
16119;SDS011;12670;53.502;10.252;2023-07-13T07:15:36;12.33;;;2.30;;
16119;SDS011;12670;53.502;10.252;2023-07-13T07:18:39;10.13;;;2.97;;
16119;SDS011;12670;53.502;10.252;2023-07-13T07:21:41;11.43;;;2.87;;
16119;SDS011;12670;53.502;10.252;2023-07-13T07:24:44;11.67;;;2.70;;
16119;SDS011;12670;53.502;10.252;2023-07-13T07:27:48;7.00;;;2.50;;
16119;SDS011;12670;53.502;10.252;2023-07-13T07:30:54;8.23;;;2.30;;
16119;SDS011;12670;53.502;10.252;2023-07-13T07:34:01;13.20;;;2.73;;
16119;SDS011;12670;53.502;10.252;2023-07-13T07:37:04;8.60;;;2.83;;
16119;SDS011;12670;53.502;10.252;2023-07-13T07:40:10;9.17;;;2.67;;
16119;SDS011;12670;53.502;10.252;2023-07-13T07:43:17;14.60;;;3.10;;
16119;SDS011;12670;53.502;10.252;2023-07-13T07:46:20;17.10;;;3.30;;
16119;SDS011;12670;53.502;10.252;2023-07-13T07:49:22;12.30;;;2.83;;
16119;SDS011;12670;53.502;10.252;2023-07-13T07:52:25;10.00;;;2.47;;
16119;SDS011;12670;53.502;10.252;2023-07-13T07:55:28;13.57;;;2.47;;
16119;SDS011;12670;53.502;10.252;2023-07-13T07:58:35;9.85;;;2.40;;
16119;SDS011;12670;53.502;10.252;2023-07-13T08:01:41;9.73;;;2.27;;
16119;SDS011;12670;53.502;10.252;2023-07-13T08:05:05;9.00;;;2.50;;
16119;SDS011;12670;53.502;10.252;2023-07-13T08:08:10;10.23;;;2.30;;
16119;SDS011;12670;53.502;10.252;2023-07-13T08:11:13;11.07;;;2.33;;
16119;SDS011;12670;53.502;10.252;2023-07-13T08:14:20;12.53;;;2.87;;
16119;SDS011;12670;53.502;10.252;2023-07-13T08:17:23;13.53;;;2.83;;
16119;SDS011;12670;53.502;10.252;2023-07-13T08:20:26;5.57;;;1.83;;
16119;SDS011;12670;53.502;10.252;2023-07-13T08:23:29;10.17;;;2.30;;
16119;SDS011;12670;53.502;10.252;2023-07-13T08:26:34;9.07;;;2.40;;
16119;SDS011;12670;53.502;10.252;2023-07-13T08:29:38;8.48;;;2.58;;
16119;SDS011;12670;53.502;10.252;2023-07-13T08:32:41;11.45;;;2.70;;
16119;SDS011;12670;53.502;10.252;2023-07-13T08:35:45;9.95;;;2.47;;
16119;SDS011;12670;53.502;10.252;2023-07-13T08:38:48;14.93;;;2.88;;
16119;SDS011;12670;53.502;10.252;2023-07-13T08:41:52;11.55;;;2.40;;
16119;SDS011;12670;53.502;10.252;2023-07-13T08:45:07;11.57;;;2.60;;
16119;SDS011;12670;53.502;10.252;2023-07-13T08:48:17;7.78;;;2.38;;
16119;SDS011;12670;53.502;10.252;2023-07-13T08:51:33;13.70;;;2.50;;
16119;SDS011;12670;53.502;10.252;2023-07-13T08:54:42;15.77;;;2.75;;
16119;SDS011;12670;53.502;10.252;2023-07-13T08:57:50;8.45;;;2.17;;
16119;SDS011;12670;53.502;10.252;2023-07-13T09:01:01;7.63;;;2.35;;
16119;SDS011;12670;53.502;10.252;2023-07-13T09:04:13;13.15;;;2.75;;
16119;SDS011;12670;53.502;10.252;2023-07-13T09:07:20;8.45;;;2.20;;
16119;SDS011;12670;53.502;10.252;2023-07-13T09:10:33;6.80;;;2.30;;
16119;SDS011;12670;53.502;10.252;2023-07-13T09:13:44;7.55;;;2.13;;
16119;SDS011;12670;53.502;10.252;2023-07-13T09:16:58;10.93;;;2.33;;
16119;SDS011;12670;53.502;10.252;2023-07-13T09:20:02;10.88;;;2.80;;
16119;SDS011;12670;53.502;10.252;2023-07-13T09:23:13;7.38;;;1.80;;
16119;SDS011;12670;53.502;10.252;2023-07-13T09:26:20;6.18;;;2.42;;
16119;SDS011;12670;53.502;10.252;2023-07-13T09:29:26;14.88;;;2.38;;
16119;SDS011;12670;53.502;10.252;2023-07-13T09:32:32;7.20;;;2.25;;
16119;SDS011;12670;53.502;10.252;2023-07-13T09:35:36;5.85;;;2.05;;
16119;SDS011;12670;53.502;10.252;2023-07-13T09:38:38;9.73;;;2.30;;
16119;SDS011;12670;53.502;10.252;2023-07-13T09:41:44;6.00;;;2.17;;
16119;SDS011;12670;53.502;10.252;2023-07-13T09:44:52;7.22;;;2.38;;
16119;SDS011;12670;53.502;10.252;2023-07-13T09:48:03;8.70;;;2.63;;
16119;SDS011;12670;53.502;10.252;2023-07-13T09:51:12;8.63;;;2.40;;
16119;SDS011;12670;53.502;10.252;2023-07-13T09:54:19;4.65;;;2.05;;
16119;SDS011;12670;53.502;10.252;2023-07-13T09:57:26;11.70;;;3.20;;
16119;SDS011;12670;53.502;10.252;2023-07-13T10:00:56;5.93;;;2.45;;
16119;SDS011;12670;53.502;10.252;2023-07-13T10:04:01;8.18;;;2.80;;
16119;SDS011;12670;53.502;10.252;2023-07-13T10:07:12;6.00;;;2.35;;
16119;SDS011;12670;53.502;10.252;2023-07-13T10:10:30;6.82;;;2.40;;
16119;SDS011;12670;53.502;10.252;2023-07-13T10:13:33;8.00;;;2.75;;
16119;SDS011;12670;53.502;10.252;2023-07-13T10:16:38;8.00;;;2.58;;
16119;SDS011;12670;53.502;10.252;2023-07-13T10:19:46;7.32;;;2.42;;
16119;SDS011;12670;53.502;10.252;2023-07-13T10:22:50;6.78;;;2.28;;
16119;SDS011;12670;53.502;10.252;2023-07-13T10:25:57;3.95;;;1.98;;
16119;SDS011;12670;53.502;10.252;2023-07-13T10:29:05;4.75;;;2.25;;
16119;SDS011;12670;53.502;10.252;2023-07-13T10:32:11;7.82;;;2.13;;
16119;SDS011;12670;53.502;10.252;2023-07-13T10:35:18;4.28;;;1.92;;
16119;SDS011;12670;53.502;10.252;2023-07-13T10:38:23;5.40;;;2.30;;
16119;SDS011;12670;53.502;10.252;2023-07-13T10:41:29;3.92;;;1.85;;
16119;SDS011;12670;53.502;10.252;2023-07-13T10:44:34;7.38;;;2.20;;
16119;SDS011;12670;53.502;10.252;2023-07-13T10:47:37;4.53;;;2.03;;
16119;SDS011;12670;53.502;10.252;2023-07-13T10:50:43;6.13;;;2.08;;
16119;SDS011;12670;53.502;10.252;2023-07-13T10:54:11;7.72;;;2.63;;
16119;SDS011;12670;53.502;10.252;2023-07-13T10:57:21;8.52;;;2.50;;
16119;SDS011;12670;53.502;10.252;2023-07-13T11:00:24;14.70;;;2.30;;
16119;SDS011;12670;53.502;10.252;2023-07-13T11:03:27;3.97;;;1.70;;
16119;SDS011;12670;53.502;10.252;2023-07-13T11:06:36;8.63;;;2.25;;
16119;SDS011;12670;53.502;10.252;2023-07-13T11:09:41;7.10;;;2.10;;
16119;SDS011;12670;53.502;10.252;2023-07-13T11:12:51;6.30;;;2.10;;
16119;SDS011;12670;53.502;10.252;2023-07-13T11:15:56;5.47;;;2.10;;
16119;SDS011;12670;53.502;10.252;2023-07-13T11:19:08;6.85;;;2.33;;
16119;SDS011;12670;53.502;10.252;2023-07-13T11:22:43;4.32;;;2.10;;
16119;SDS011;12670;53.502;10.252;2023-07-13T11:25:48;5.68;;;1.92;;
16119;SDS011;12670;53.502;10.252;2023-07-13T11:28:51;7.25;;;2.20;;
16119;SDS011;12670;53.502;10.252;2023-07-13T11:31:55;5.38;;;2.03;;
16119;SDS011;12670;53.502;10.252;2023-07-13T11:34:59;4.97;;;1.92;;
16119;SDS011;12670;53.502;10.252;2023-07-13T11:38:03;6.05;;;2.08;;
16119;SDS011;12670;53.502;10.252;2023-07-13T11:41:16;5.90;;;2.00;;
16119;SDS011;12670;53.502;10.252;2023-07-13T11:44:22;4.93;;;2.10;;
16119;SDS011;12670;53.502;10.252;2023-07-13T11:47:26;4.35;;;1.63;;
16119;SDS011;12670;53.502;10.252;2023-07-13T11:50:30;3.38;;;1.80;;
16119;SDS011;12670;53.502;10.252;2023-07-13T11:53:47;4.93;;;2.15;;
16119;SDS011;12670;53.502;10.252;2023-07-13T11:56:55;6.00;;;1.90;;
16119;SDS011;12670;53.502;10.252;2023-07-13T12:00:04;6.63;;;1.67;;
16119;SDS011;12670;53.502;10.252;2023-07-13T12:03:17;3.95;;;1.73;;
16119;SDS011;12670;53.502;10.252;2023-07-13T12:06:26;2.47;;;1.42;;
16119;SDS011;12670;53.502;10.252;2023-07-13T12:09:33;3.25;;;1.80;;
16119;SDS011;12670;53.502;10.252;2023-07-13T12:12:40;9.15;;;1.65;;
16119;SDS011;12670;53.502;10.252;2023-07-13T12:15:49;9.30;;;2.20;;
16119;SDS011;12670;53.502;10.252;2023-07-13T12:18:53;4.22;;;1.58;;
16119;SDS011;12670;53.502;10.252;2023-07-13T12:21:57;6.05;;;1.98;;
16119;SDS011;12670;53.502;10.252;2023-07-13T12:25:03;5.93;;;1.60;;
16119;SDS011;12670;53.502;10.252;2023-07-13T12:28:19;5.57;;;1.63;;
16119;SDS011;12670;53.502;10.252;2023-07-13T12:31:25;4.93;;;1.80;;
16119;SDS011;12670;53.502;10.252;2023-07-13T12:34:32;5.57;;;1.30;;
16119;SDS011;12670;53.502;10.252;2023-07-13T12:37:52;4.60;;;1.70;;
16119;SDS011;12670;53.502;10.252;2023-07-13T12:40:56;3.45;;;1.67;;
16119;SDS011;12670;53.502;10.252;2023-07-13T12:43:59;4.70;;;1.63;;
16119;SDS011;12670;53.502;10.252;2023-07-13T12:47:03;7.45;;;2.10;;
16119;SDS011;12670;53.502;10.252;2023-07-13T12:50:14;8.02;;;2.20;;
16119;SDS011;12670;53.502;10.252;2023-07-13T12:53:19;7.70;;;2.25;;
16119;SDS011;12670;53.502;10.252;2023-07-13T12:56:26;8.27;;;1.60;;
16119;SDS011;12670;53.502;10.252;2023-07-13T12:59:31;6.70;;;2.30;;
16119;SDS011;12670;53.502;10.252;2023-07-13T13:02:38;5.73;;;1.77;;
16119;SDS011;12670;53.502;10.252;2023-07-13T13:05:41;6.27;;;1.93;;
16119;SDS011;12670;53.502;10.252;2023-07-13T13:08:46;4.47;;;1.93;;
16119;SDS011;12670;53.502;10.252;2023-07-13T13:11:52;4.77;;;1.73;;
16119;SDS011;12670;53.502;10.252;2023-07-13T13:14:54;8.47;;;2.20;;
16119;SDS011;12670;53.502;10.252;2023-07-13T13:17:57;8.20;;;2.10;;
16119;SDS011;12670;53.502;10.252;2023-07-13T13:21:00;5.70;;;2.00;;
16119;SDS011;12670;53.502;10.252;2023-07-13T13:24:04;7.27;;;2.07;;
16119;SDS011;12670;53.502;10.252;2023-07-13T13:27:16;5.00;;;2.30;;
16119;SDS011;12670;53.502;10.252;2023-07-13T13:30:19;8.00;;;2.23;;
16119;SDS011;12670;53.502;10.252;2023-07-13T13:33:23;5.70;;;2.10;;
16119;SDS011;12670;53.502;10.252;2023-07-13T13:36:25;4.60;;;2.10;;
16119;SDS011;12670;53.502;10.252;2023-07-13T13:39:29;5.73;;;2.10;;
16119;SDS011;12670;53.502;10.252;2023-07-13T13:42:37;4.33;;;1.80;;
16119;SDS011;12670;53.502;10.252;2023-07-13T13:45:40;3.70;;;1.77;;
16119;SDS011;12670;53.502;10.252;2023-07-13T13:48:43;4.03;;;1.77;;
16119;SDS011;12670;53.502;10.252;2023-07-13T13:51:46;3.50;;;1.63;;
16119;SDS011;12670;53.502;10.252;2023-07-13T13:54:50;4.30;;;1.65;;
16119;SDS011;12670;53.502;10.252;2023-07-13T13:57:58;5.43;;;1.60;;
16119;SDS011;12670;53.502;10.252;2023-07-13T14:01:00;4.10;;;1.67;;
16119;SDS011;12670;53.502;10.252;2023-07-13T14:04:03;9.30;;;1.60;;
16119;SDS011;12670;53.502;10.252;2023-07-13T14:07:07;3.70;;;1.80;;
16119;SDS011;12670;53.502;10.252;2023-07-13T14:10:11;2.40;;;1.47;;
16119;SDS011;12670;53.502;10.252;2023-07-13T14:13:18;3.87;;;1.90;;
16119;SDS011;12670;53.502;10.252;2023-07-13T14:16:25;2.87;;;1.60;;
16119;SDS011;12670;53.502;10.252;2023-07-13T14:19:30;3.07;;;1.77;;
16119;SDS011;12670;53.502;10.252;2023-07-13T14:22:33;5.63;;;1.67;;
16119;SDS011;12670;53.502;10.252;2023-07-13T14:25:36;3.57;;;1.60;;
16119;SDS011;12670;53.502;10.252;2023-07-13T14:28:40;4.40;;;1.50;;
16119;SDS011;12670;53.502;10.252;2023-07-13T14:31:44;3.03;;;1.60;;
16119;SDS011;12670;53.502;10.252;2023-07-13T14:34:48;3.57;;;1.57;;
16119;SDS011;12670;53.502;10.252;2023-07-13T14:37:50;4.47;;;1.83;;
16119;SDS011;12670;53.502;10.252;2023-07-13T14:40:53;6.17;;;1.83;;
16119;SDS011;12670;53.502;10.252;2023-07-13T14:43:57;5.33;;;1.90;;
16119;SDS011;12670;53.502;10.252;2023-07-13T14:47:01;3.93;;;1.67;;
16119;SDS011;12670;53.502;10.252;2023-07-13T14:50:11;7.67;;;2.00;;
16119;SDS011;12670;53.502;10.252;2023-07-13T14:53:15;6.07;;;2.03;;
16119;SDS011;12670;53.502;10.252;2023-07-13T14:56:18;5.77;;;2.13;;
16119;SDS011;12670;53.502;10.252;2023-07-13T14:59:22;5.13;;;1.90;;
16119;SDS011;12670;53.502;10.252;2023-07-13T15:02:26;5.90;;;1.90;;
16119;SDS011;12670;53.502;10.252;2023-07-13T15:05:31;4.63;;;1.83;;
16119;SDS011;12670;53.502;10.252;2023-07-13T15:08:34;5.40;;;2.00;;
16119;SDS011;12670;53.502;10.252;2023-07-13T15:11:37;6.37;;;1.97;;
16119;SDS011;12670;53.502;10.252;2023-07-13T15:14:41;2.77;;;1.60;;
16119;SDS011;12670;53.502;10.252;2023-07-13T15:17:44;3.90;;;1.73;;
16119;SDS011;12670;53.502;10.252;2023-07-13T15:20:49;3.83;;;1.80;;
16119;SDS011;12670;53.502;10.252;2023-07-13T15:23:53;5.00;;;1.83;;
16119;SDS011;12670;53.502;10.252;2023-07-13T15:26:56;4.93;;;1.60;;
16119;SDS011;12670;53.502;10.252;2023-07-13T15:30:00;3.72;;;1.98;;
16119;SDS011;12670;53.502;10.252;2023-07-13T15:33:05;3.40;;;1.80;;
16119;SDS011;12670;53.502;10.252;2023-07-13T15:36:14;5.45;;;1.98;;
16119;SDS011;12670;53.502;10.252;2023-07-13T15:39:18;5.25;;;1.90;;
16119;SDS011;12670;53.502;10.252;2023-07-13T15:42:22;4.10;;;1.80;;
16119;SDS011;12670;53.502;10.252;2023-07-13T15:45:26;4.20;;;2.13;;
16119;SDS011;12670;53.502;10.252;2023-07-13T15:48:29;4.10;;;1.90;;
16119;SDS011;12670;53.502;10.252;2023-07-13T15:51:32;4.20;;;1.90;;
16119;SDS011;12670;53.502;10.252;2023-07-13T15:54:36;5.13;;;1.80;;
16119;SDS011;12670;53.502;10.252;2023-07-13T15:57:40;4.03;;;1.63;;
16119;SDS011;12670;53.502;10.252;2023-07-13T16:00:48;4.95;;;1.80;;
16119;SDS011;12670;53.502;10.252;2023-07-13T16:03:53;3.23;;;1.87;;
16119;SDS011;12670;53.502;10.252;2023-07-13T16:06:55;4.67;;;2.00;;
16119;SDS011;12670;53.502;10.252;2023-07-13T16:09:58;3.07;;;1.73;;
16119;SDS011;12670;53.502;10.252;2023-07-13T16:13:01;2.50;;;1.53;;
16119;SDS011;12670;53.502;10.252;2023-07-13T16:16:09;2.83;;;1.60;;
16119;SDS011;12670;53.502;10.252;2023-07-13T16:19:13;3.93;;;1.40;;
16119;SDS011;12670;53.502;10.252;2023-07-13T16:22:17;5.67;;;2.00;;
16119;SDS011;12670;53.502;10.252;2023-07-13T16:25:23;2.90;;;1.60;;
16119;SDS011;12670;53.502;10.252;2023-07-13T16:28:27;3.63;;;1.50;;
16119;SDS011;12670;53.502;10.252;2023-07-13T16:31:32;3.10;;;1.50;;
16119;SDS011;12670;53.502;10.252;2023-07-13T16:34:35;3.27;;;1.53;;
16119;SDS011;12670;53.502;10.252;2023-07-13T16:37:39;3.30;;;1.50;;
16119;SDS011;12670;53.502;10.252;2023-07-13T16:41:02;3.07;;;1.33;;
16119;SDS011;12670;53.502;10.252;2023-07-13T16:44:09;4.18;;;1.33;;
16119;SDS011;12670;53.502;10.252;2023-07-13T16:47:15;4.93;;;2.50;;
16119;SDS011;12670;53.502;10.252;2023-07-13T16:50:20;3.33;;;1.90;;
16119;SDS011;12670;53.502;10.252;2023-07-13T16:53:25;4.47;;;2.27;;
16119;SDS011;12670;53.502;10.252;2023-07-13T16:56:29;8.07;;;1.85;;
16119;SDS011;12670;53.502;10.252;2023-07-13T16:59:36;2.70;;;1.60;;
16119;SDS011;12670;53.502;10.252;2023-07-13T17:02:40;3.60;;;1.70;;
16119;SDS011;12670;53.502;10.252;2023-07-13T17:05:43;4.53;;;1.50;;
16119;SDS011;12670;53.502;10.252;2023-07-13T17:08:49;4.90;;;1.80;;
16119;SDS011;12670;53.502;10.252;2023-07-13T17:11:54;3.57;;;1.60;;
16119;SDS011;12670;53.502;10.252;2023-07-13T17:14:57;7.00;;;2.30;;
16119;SDS011;12670;53.502;10.252;2023-07-13T17:18:03;4.73;;;2.00;;
16119;SDS011;12670;53.502;10.252;2023-07-13T17:21:13;4.93;;;1.60;;
16119;SDS011;12670;53.502;10.252;2023-07-13T17:24:18;5.07;;;1.90;;
16119;SDS011;12670;53.502;10.252;2023-07-13T17:27:25;3.93;;;1.57;;
16119;SDS011;12670;53.502;10.252;2023-07-13T17:30:28;6.77;;;1.73;;
16119;SDS011;12670;53.502;10.252;2023-07-13T17:33:33;9.23;;;3.57;;
16119;SDS011;12670;53.502;10.252;2023-07-13T17:36:38;6.87;;;2.37;;
16119;SDS011;12670;53.502;10.252;2023-07-13T17:39:41;4.73;;;1.70;;
16119;SDS011;12670;53.502;10.252;2023-07-13T17:42:44;3.00;;;1.40;;
16119;SDS011;12670;53.502;10.252;2023-07-13T17:45:47;7.70;;;2.77;;
16119;SDS011;12670;53.502;10.252;2023-07-13T17:48:51;3.63;;;1.60;;
16119;SDS011;12670;53.502;10.252;2023-07-13T17:51:55;3.77;;;1.60;;
16119;SDS011;12670;53.502;10.252;2023-07-13T17:54:57;4.97;;;2.10;;
16119;SDS011;12670;53.502;10.252;2023-07-13T17:58:03;4.33;;;1.87;;
16119;SDS011;12670;53.502;10.252;2023-07-13T18:01:08;4.83;;;1.87;;
16119;SDS011;12670;53.502;10.252;2023-07-13T18:04:14;5.07;;;2.00;;
16119;SDS011;12670;53.502;10.252;2023-07-13T18:07:23;5.10;;;1.73;;
16119;SDS011;12670;53.502;10.252;2023-07-13T18:10:29;3.37;;;1.90;;
16119;SDS011;12670;53.502;10.252;2023-07-13T18:13:32;3.97;;;1.83;;
16119;SDS011;12670;53.502;10.252;2023-07-13T18:16:41;2.53;;;1.50;;